createdAt,value
2018-12-12T00:00:06.627Z,86.86
2018-12-12T00:02:34.784Z,86.34
2018-12-12T00:05:03.169Z,86.42
2018-12-12T00:07:31.456Z,86.72
2018-12-12T00:09:59.653Z,87.03
2018-12-12T00:12:27.746Z,86.77
2018-12-12T00:14:56.051Z,87.34
2018-12-12T00:17:25.335Z,86.55
2018-12-12T00:19:53.646Z,86.56
2018-12-12T00:22:21.712Z,86.40
2018-12-12T00:24:50.286Z,86.83
2018-12-12T00:27:18.596Z,86.75
2018-12-12T00:29:46.720Z,87.12
2018-12-12T00:32:15.019Z,87.97
2018-12-12T00:34:43.142Z,88.49
2018-12-12T00:37:11.540Z,89.61
2018-12-12T00:39:39.838Z,89.45
2018-12-12T00:42:08.182Z,89.99
2018-12-12T00:44:36.354Z,89.92
2018-12-12T00:47:05.138Z,89.91
2018-12-12T00:49:33.466Z,89.79
2018-12-12T00:52:01.640Z,90.12
2018-12-12T00:54:30.501Z,89.35
2018-12-12T00:56:58.780Z,88.22
2018-12-12T00:59:27.012Z,87.94
2018-12-12T01:01:55.380Z,87.33
2018-12-12T01:04:23.644Z,87.21
2018-12-12T01:06:51.752Z,86.87
2018-12-12T01:09:19.842Z,87.67
2018-12-12T01:11:53.526Z,87.10
2018-12-12T01:14:21.690Z,86.46
2018-12-12T01:16:50.012Z,86.51
2018-12-12T01:19:18.144Z,86.24
2018-12-12T01:21:46.328Z,86.42
2018-12-12T01:24:14.441Z,85.70
2018-12-12T01:26:42.749Z,85.75
2018-12-12T01:29:10.893Z,84.55
2018-12-12T01:31:39.139Z,85.21
2018-12-12T01:34:07.405Z,84.43
2018-12-12T01:36:35.451Z,84.28
2018-12-12T01:39:06.210Z,83.93
2018-12-12T01:41:34.595Z,84.19
2018-12-12T01:44:02.807Z,83.65
2018-12-12T01:46:30.990Z,83.42
2018-12-12T01:48:59.117Z,83.60
2018-12-12T01:51:27.283Z,82.71
2018-12-12T01:53:55.441Z,82.95
2018-12-12T01:56:23.699Z,83.13
2018-12-12T01:58:51.773Z,83.28
2018-12-12T02:01:20.092Z,83.21
2018-12-12T02:03:48.196Z,83.30
2018-12-12T02:06:16.292Z,83.57
2018-12-12T02:08:46.248Z,83.53
2018-12-12T02:11:14.732Z,83.62
2018-12-12T02:13:42.847Z,84.16
2018-12-12T02:16:11.148Z,83.16
2018-12-12T02:18:42.204Z,82.41
2018-12-12T02:21:10.437Z,82.97
2018-12-12T02:23:38.544Z,83.99
2018-12-12T02:26:06.635Z,83.90
2018-12-12T02:28:34.944Z,85.20
2018-12-12T02:31:03.173Z,86.11
2018-12-12T02:33:31.484Z,86.43
2018-12-12T02:35:59.775Z,85.33
2018-12-12T02:38:27.895Z,84.66
2018-12-12T02:40:56.686Z,84.35
2018-12-12T02:43:25.305Z,84.15
2018-12-12T02:45:53.414Z,84.37
2018-12-12T02:48:21.752Z,83.86
2018-12-12T02:50:49.898Z,83.76
2018-12-12T02:53:18.179Z,83.47
2018-12-12T02:55:46.906Z,83.48
2018-12-12T02:58:15.244Z,83.51
2018-12-12T03:00:43.468Z,83.15
2018-12-12T03:03:11.754Z,83.00
2018-12-12T03:05:40.502Z,83.45
2018-12-12T03:08:08.930Z,84.33
2018-12-12T03:10:37.015Z,83.95
2018-12-12T03:13:05.260Z,84.47
2018-12-12T03:15:33.485Z,84.61
2018-12-12T03:18:01.799Z,84.98
2018-12-12T03:20:30.074Z,86.31
2018-12-12T03:22:58.201Z,86.78
2018-12-12T03:25:26.364Z,87.00
2018-12-12T03:27:54.467Z,87.50
2018-12-12T03:30:22.684Z,87.78
2018-12-12T03:32:50.991Z,87.36
2018-12-12T03:35:19.112Z,86.91
2018-12-12T03:37:47.312Z,86.41
2018-12-12T03:40:15.661Z,85.84
2018-12-12T03:42:44.650Z,85.29
2018-12-12T03:45:12.747Z,84.27
2018-12-12T03:47:40.921Z,83.96
2018-12-12T03:50:09.404Z,84.62
2018-12-12T03:52:37.722Z,84.67
2018-12-12T03:55:06.497Z,83.88
2018-12-12T03:57:34.629Z,84.56
2018-12-12T04:00:03.070Z,84.67
2018-12-12T04:02:32.069Z,84.07
2018-12-12T04:05:00.192Z,85.32
2018-12-12T04:07:29.448Z,86.16
2018-12-12T04:09:57.899Z,86.10
2018-12-12T04:12:26.685Z,85.14
2018-12-12T04:14:54.835Z,85.24
2018-12-12T04:17:24.166Z,86.21
2018-12-12T04:19:52.946Z,85.90
2018-12-12T04:22:22.210Z,85.21
2018-12-12T04:24:51.315Z,85.62
2018-12-12T04:27:20.348Z,85.00
2018-12-12T04:29:48.695Z,85.00
2018-12-12T04:32:16.791Z,85.24
2018-12-12T04:34:45.073Z,85.19
2018-12-12T04:37:13.309Z,85.23
2018-12-12T04:39:41.632Z,85.14
2018-12-12T04:42:09.996Z,85.41
2018-12-12T04:44:38.327Z,85.06
2018-12-12T04:47:06.511Z,85.58
2018-12-12T04:49:34.810Z,85.81
2018-12-12T04:52:02.998Z,86.68
2018-12-12T04:54:32.166Z,86.92
2018-12-12T04:57:00.871Z,86.37
2018-12-12T04:59:29.834Z,87.08
2018-12-12T05:01:58.911Z,87.34
2018-12-12T05:04:27.257Z,87.38
2018-12-12T05:06:55.419Z,86.80
2018-12-12T05:09:24.398Z,87.87
2018-12-12T05:11:53.648Z,87.77
2018-12-12T05:14:21.897Z,86.84
2018-12-12T05:16:50.053Z,87.16
2018-12-12T05:19:18.954Z,87.76
2018-12-12T05:21:47.062Z,87.24
2018-12-12T05:24:15.787Z,88.10
2018-12-12T05:26:44.074Z,87.71
2018-12-12T05:29:12.176Z,86.84
2018-12-12T05:31:40.542Z,87.41
2018-12-12T05:34:08.888Z,86.76
2018-12-12T05:36:37.064Z,87.10
2018-12-12T05:39:06.923Z,86.90
2018-12-12T05:41:35.191Z,87.80
2018-12-12T05:44:03.612Z,88.08
2018-12-12T05:46:31.927Z,87.64
2018-12-12T05:49:00.802Z,87.61
2018-12-12T05:51:28.963Z,87.30
2018-12-12T05:53:57.281Z,86.92
2018-12-12T05:56:25.491Z,87.58
2018-12-12T05:58:53.881Z,88.03
2018-12-12T06:01:22.124Z,87.51
2018-12-12T06:03:50.314Z,88.16
2018-12-12T06:06:18.501Z,87.49
2018-12-12T06:08:46.696Z,88.01
2018-12-12T06:11:14.793Z,87.13
2018-12-12T06:13:42.934Z,87.62
2018-12-12T06:16:11.225Z,87.98
2018-12-12T06:18:39.422Z,88.18
2018-12-12T06:21:07.487Z,89.82
2018-12-12T06:23:35.656Z,89.53
2018-12-12T06:26:03.853Z,89.49
2018-12-12T06:28:33.120Z,89.08
2018-12-12T06:31:02.203Z,89.76
2018-12-12T06:33:30.327Z,89.53
2018-12-12T06:35:58.935Z,89.48
2018-12-12T06:38:28.065Z,89.35
2018-12-12T06:40:56.845Z,89.44
2018-12-12T06:43:25.820Z,89.64
2018-12-12T06:45:53.909Z,89.24
2018-12-12T06:48:22.787Z,88.88
2018-12-12T06:50:51.525Z,89.60
2018-12-12T06:53:20.228Z,89.83
2018-12-12T06:55:48.376Z,89.65
2018-12-12T06:58:16.421Z,89.57
2018-12-12T07:00:44.927Z,89.35
2018-12-12T07:03:13.048Z,89.49
2018-12-12T07:05:41.507Z,89.14
2018-12-12T07:08:09.648Z,88.56
2018-12-12T07:10:37.797Z,89.05
2018-12-12T07:13:05.906Z,88.33
2018-12-12T07:15:34.049Z,88.64
2018-12-12T07:18:02.248Z,88.57
2018-12-12T07:20:30.508Z,88.33
2018-12-12T07:22:59.728Z,88.38
2018-12-12T07:25:27.952Z,88.73
2018-12-12T07:27:56.100Z,88.40
2018-12-12T07:30:25.095Z,88.26
2018-12-12T07:32:53.190Z,88.49
2018-12-12T07:35:21.342Z,88.97
2018-12-12T07:37:49.680Z,89.52
2018-12-12T07:40:17.790Z,89.19
2018-12-12T07:42:45.912Z,89.40
2018-12-12T07:45:14.167Z,89.96
2018-12-12T07:47:42.435Z,89.92
2018-12-12T07:50:11.519Z,89.74
2018-12-12T07:52:40.626Z,89.99
2018-12-12T07:55:08.898Z,89.78
2018-12-12T07:57:37.069Z,89.84
2018-12-12T08:00:06.329Z,89.14
2018-12-12T08:02:34.482Z,89.02
2018-12-12T08:05:02.753Z,89.37
2018-12-12T08:07:30.933Z,89.03
2018-12-12T08:09:59.103Z,88.68
2018-12-12T08:12:27.413Z,87.75
2018-12-12T08:14:55.620Z,88.01
2018-12-12T08:17:24.473Z,88.31
2018-12-12T08:19:52.595Z,87.53
2018-12-12T08:22:20.705Z,87.99
2018-12-12T08:24:48.916Z,88.12
2018-12-12T08:27:17.236Z,86.95
2018-12-12T08:29:45.451Z,86.28
2018-12-12T08:32:13.768Z,86.19
2018-12-12T08:34:41.922Z,86.24
2018-12-12T08:37:10.183Z,86.74
2018-12-12T08:39:38.381Z,86.12
2018-12-12T08:42:06.557Z,85.62
2018-12-12T08:44:34.716Z,85.21
2018-12-12T08:47:03.062Z,86.11
2018-12-12T08:49:31.198Z,85.50
2018-12-12T08:51:59.312Z,85.26
2018-12-12T08:54:27.475Z,85.65
2018-12-12T08:56:56.391Z,85.33
2018-12-12T08:59:24.788Z,85.97
2018-12-12T09:01:52.946Z,85.35
2018-12-12T09:04:21.274Z,84.65
2018-12-12T09:06:49.670Z,85.24
2018-12-12T09:09:17.906Z,84.90
2018-12-12T09:11:46.312Z,84.33
2018-12-12T09:14:14.562Z,83.74
2018-12-12T09:16:43.611Z,83.32
2018-12-12T09:19:12.026Z,82.46
2018-12-12T09:21:40.199Z,82.14
2018-12-12T09:24:08.379Z,81.17
2018-12-12T09:26:36.494Z,80.28
2018-12-12T09:29:04.758Z,80.66
2018-12-12T09:31:32.874Z,80.82
2018-12-12T09:34:01.032Z,81.44
2018-12-12T09:36:29.334Z,81.58
2018-12-12T09:38:57.419Z,80.57
2018-12-12T09:41:25.508Z,81.27
2018-12-12T09:43:53.819Z,81.29
2018-12-12T09:46:22.019Z,81.36
2018-12-12T09:48:50.147Z,81.02
2018-12-12T09:51:18.299Z,79.70
2018-12-12T09:53:48.604Z,80.20
2018-12-12T09:56:16.829Z,79.79
2018-12-12T09:58:45.049Z,78.88
2018-12-12T10:01:13.265Z,78.53
2018-12-12T10:03:41.435Z,78.78
2018-12-12T10:06:09.596Z,78.70
2018-12-12T10:08:37.811Z,78.46
2018-12-12T10:11:05.954Z,77.67
2018-12-12T10:13:34.148Z,77.31
2018-12-12T10:16:03.021Z,77.86
2018-12-12T10:18:31.345Z,78.45
2018-12-12T10:20:59.480Z,78.27
2018-12-12T10:26:15.869Z,78.28
2018-12-12T10:28:44.064Z,79.13
2018-12-12T10:31:12.241Z,79.72
2018-12-12T10:33:40.392Z,79.00
2018-12-12T10:36:08.567Z,79.35
2018-12-12T10:38:36.691Z,79.68
2018-12-12T10:41:04.847Z,79.87
2018-12-12T10:43:33.079Z,79.10
2018-12-12T10:46:01.233Z,79.66
2018-12-12T10:48:29.396Z,78.29
2018-12-12T10:50:57.533Z,78.36
2018-12-12T10:53:25.746Z,77.70
2018-12-12T10:55:53.920Z,77.33
2018-12-12T10:58:22.073Z,77.04
2018-12-12T11:00:55.753Z,76.08
2018-12-12T11:03:44.213Z,76.58
2018-12-12T11:06:09.927Z,76.47
2018-12-12T11:08:38.870Z,77.17
2018-12-12T11:11:07.173Z,76.96
2018-12-12T11:13:35.259Z,76.53
2018-12-12T11:16:03.418Z,77.67
2018-12-12T11:18:31.671Z,77.92
2018-12-12T11:20:59.847Z,78.95
2018-12-12T11:23:27.959Z,78.42
2018-12-12T11:25:56.076Z,78.07
2018-12-12T11:28:24.215Z,78.24
2018-12-12T11:30:52.362Z,78.80
2018-12-12T11:33:20.608Z,78.77
2018-12-12T11:35:49.706Z,77.63
2018-12-12T11:38:17.880Z,77.27
2018-12-12T11:40:46.156Z,76.76
2018-12-12T11:43:15.162Z,76.07
2018-12-12T11:45:43.328Z,76.05
2018-12-12T11:48:11.626Z,74.65
2018-12-12T11:50:39.750Z,73.74
2018-12-12T11:53:07.892Z,73.33
2018-12-12T11:55:36.046Z,74.98
2018-12-12T11:58:04.352Z,75.25
2018-12-12T12:00:32.494Z,73.82
2018-12-12T12:03:00.671Z,74.34
2018-12-12T12:05:28.842Z,74.49
2018-12-12T12:07:56.927Z,75.85
2018-12-12T12:10:25.235Z,75.08
2018-12-12T12:13:00.372Z,75.27
2018-12-12T12:15:28.506Z,75.65
2018-12-12T12:17:56.676Z,76.10
2018-12-12T12:20:24.827Z,75.75
2018-12-12T12:22:53.990Z,75.19
2018-12-12T12:25:22.164Z,76.08
2018-12-12T12:27:50.512Z,75.88
2018-12-12T12:30:18.829Z,76.08
2018-12-12T12:32:47.016Z,76.28
2018-12-12T12:35:15.207Z,75.75
2018-12-12T12:37:46.379Z,75.31
2018-12-12T12:40:15.001Z,75.60
2018-12-12T12:42:43.417Z,75.29
2018-12-12T12:45:11.600Z,75.60
2018-12-12T12:47:39.810Z,75.27
2018-12-12T12:50:08.439Z,75.11
2018-12-12T12:52:36.626Z,76.05
2018-12-12T12:55:05.559Z,75.54
2018-12-12T12:57:34.258Z,75.17
2018-12-12T13:00:02.708Z,75.53
2018-12-12T13:02:30.881Z,75.56
2018-12-12T13:04:58.987Z,76.43
2018-12-12T13:07:27.070Z,77.32
2018-12-12T13:09:55.237Z,77.70
2018-12-12T13:12:23.476Z,76.79
2018-12-12T13:14:51.740Z,76.54
2018-12-12T13:17:19.906Z,76.97
2018-12-12T13:19:48.016Z,76.14
2018-12-12T13:22:16.213Z,76.11
2018-12-12T13:24:44.378Z,76.29
2018-12-12T13:27:12.523Z,76.46
2018-12-12T13:29:40.606Z,76.77
2018-12-12T13:32:08.739Z,77.52
2018-12-12T13:34:37.241Z,77.60
2018-12-12T13:37:05.598Z,77.51
2018-12-12T13:39:33.759Z,77.49
2018-12-12T13:42:01.896Z,77.33
2018-12-12T13:44:31.058Z,77.81
2018-12-12T13:46:59.185Z,77.10
2018-12-12T13:49:27.363Z,77.45
2018-12-12T13:51:55.557Z,79.19
2018-12-12T13:54:23.729Z,79.14
2018-12-12T13:56:51.877Z,78.42
2018-12-12T13:59:20.957Z,78.69
2018-12-12T14:01:49.777Z,78.70
2018-12-12T14:04:22.795Z,79.46
2018-12-12T14:06:48.070Z,79.25
2018-12-12T14:09:16.229Z,81.23
2018-12-12T14:11:44.483Z,80.81
2018-12-12T14:14:12.653Z,81.13
2018-12-12T14:16:41.173Z,82.43
2018-12-12T14:19:09.378Z,82.27
2018-12-12T14:21:37.635Z,83.12
2018-12-12T14:24:05.921Z,83.80
2018-12-12T14:26:34.778Z,82.53
2018-12-12T14:29:03.964Z,82.47
2018-12-12T14:31:32.108Z,82.74
2018-12-12T14:34:03.275Z,83.26
2018-12-12T14:36:31.530Z,83.17
2018-12-12T14:39:00.466Z,84.26
2018-12-12T14:41:28.618Z,84.55
2018-12-12T14:43:56.772Z,84.53
2018-12-12T14:46:25.696Z,85.02
2018-12-12T14:48:54.564Z,85.04
2018-12-12T14:51:22.852Z,84.90
2018-12-12T14:53:51.123Z,83.76
2018-12-12T14:56:19.394Z,83.93
2018-12-12T14:58:47.680Z,84.25
2018-12-12T15:01:15.866Z,83.46
2018-12-12T15:03:45.771Z,83.17
2018-12-12T15:06:14.374Z,83.73
2018-12-12T15:08:42.504Z,83.31
2018-12-12T15:11:10.661Z,83.88
2018-12-12T15:13:38.852Z,84.35
2018-12-12T15:16:07.078Z,84.32
2018-12-12T15:18:35.245Z,83.49
2018-12-12T15:21:03.605Z,83.56
2018-12-12T15:23:31.822Z,83.72
2018-12-12T15:25:59.973Z,84.84
2018-12-12T15:28:28.173Z,84.49
2018-12-12T15:30:56.348Z,84.55
2018-12-12T15:33:24.442Z,84.62
2018-12-12T15:35:52.873Z,83.90
2018-12-12T15:38:21.023Z,83.29
2018-12-12T15:40:49.166Z,82.28
2018-12-12T15:43:17.323Z,81.62
2018-12-12T15:45:45.479Z,81.47
2018-12-12T15:48:13.684Z,80.62
2018-12-12T15:50:41.785Z,81.23
2018-12-12T15:53:10.079Z,80.78
2018-12-12T15:55:38.226Z,81.21
2018-12-12T15:58:06.443Z,81.60
2018-12-12T16:00:35.917Z,81.20
2018-12-12T16:03:05.146Z,81.25
2018-12-12T16:05:33.465Z,82.00
2018-12-12T16:08:01.627Z,81.64
2018-12-12T16:10:29.890Z,80.60
2018-12-12T16:12:58.086Z,80.92
2018-12-12T16:15:26.288Z,80.72
2018-12-12T16:17:55.428Z,80.19
2018-12-12T16:20:23.588Z,81.06
2018-12-12T16:22:51.735Z,81.76
2018-12-12T16:25:19.880Z,81.34
2018-12-12T16:27:48.004Z,81.40
2018-12-12T16:30:16.226Z,81.43
2018-12-12T16:32:51.078Z,81.60
2018-12-12T16:35:19.254Z,81.61
2018-12-12T16:37:47.604Z,81.38
2018-12-12T16:40:16.426Z,81.94
2018-12-12T16:42:45.530Z,82.24
2018-12-12T16:45:13.924Z,82.10
2018-12-12T16:47:43.185Z,82.77
2018-12-12T16:50:11.720Z,82.82
2018-12-12T16:52:39.870Z,82.64
2018-12-12T16:55:08.312Z,82.88
2018-12-12T16:57:36.474Z,83.46
2018-12-12T17:00:08.178Z,83.27
2018-12-12T17:02:36.918Z,83.64
2018-12-12T17:05:05.604Z,83.23
2018-12-12T17:07:34.199Z,83.82
2018-12-12T17:10:04.602Z,83.80
2018-12-12T17:12:32.761Z,85.03
2018-12-12T17:15:01.616Z,85.20
2018-12-12T17:17:29.736Z,85.53
2018-12-12T17:19:58.061Z,86.17
2018-12-12T17:22:26.443Z,86.17
2018-12-12T17:24:54.640Z,86.72
2018-12-12T17:27:23.538Z,87.13
2018-12-12T17:29:51.710Z,87.07
2018-12-12T17:32:19.857Z,87.28
2018-12-12T17:34:47.990Z,87.17
2018-12-12T17:37:16.117Z,87.23
2018-12-12T17:39:44.277Z,87.71
2018-12-12T17:42:12.499Z,86.83
2018-12-12T17:44:40.684Z,86.77
2018-12-12T17:47:08.816Z,86.31
2018-12-12T17:49:36.979Z,86.22
2018-12-12T17:52:05.197Z,85.95
2018-12-12T17:54:33.384Z,85.85
2018-12-12T17:57:01.509Z,85.31
2018-12-12T17:59:29.652Z,85.52
2018-12-12T18:01:57.782Z,86.32
2018-12-12T18:04:26.126Z,86.05
2018-12-12T18:06:54.285Z,85.16
2018-12-12T18:09:22.342Z,84.89
2018-12-12T18:11:50.609Z,84.81
2018-12-12T18:14:18.790Z,84.43
2018-12-12T18:16:46.962Z,83.75
2018-12-12T18:19:15.127Z,83.31
2018-12-12T18:21:43.276Z,82.73
2018-12-12T18:24:11.411Z,83.38
2018-12-12T18:26:39.651Z,82.89
2018-12-12T18:29:07.899Z,83.29
2018-12-12T18:31:36.116Z,83.54
2018-12-12T18:34:04.471Z,84.74
2018-12-12T18:36:32.658Z,84.54
2018-12-12T18:39:00.863Z,84.84
2018-12-12T18:41:29.066Z,85.25
2018-12-12T18:43:57.208Z,84.98
2018-12-12T18:46:25.668Z,84.97
2018-12-12T18:48:53.882Z,85.59
2018-12-12T18:51:22.112Z,85.46
2018-12-12T18:53:50.289Z,86.12
2018-12-12T18:56:18.455Z,86.85
2018-12-12T18:58:46.696Z,86.89
2018-12-12T19:01:14.878Z,87.34
2018-12-12T19:03:43.216Z,87.67
2018-12-12T19:06:11.473Z,88.20
2018-12-12T19:08:39.636Z,88.87
2018-12-12T19:11:07.921Z,88.83
2018-12-12T19:13:36.131Z,89.31
2018-12-12T19:16:04.429Z,89.31
2018-12-12T19:18:32.542Z,90.24
2018-12-12T19:21:00.797Z,90.62
2018-12-12T19:23:29.549Z,91.02
2018-12-12T19:25:57.741Z,91.11
2018-12-12T19:28:25.949Z,90.74
2018-12-12T19:30:54.157Z,90.98
2018-12-12T19:33:22.321Z,91.62
2018-12-12T19:35:50.613Z,91.50
2018-12-12T19:38:18.761Z,91.24
2018-12-12T19:40:46.958Z,91.87
2018-12-12T19:43:15.141Z,92.06
2018-12-12T19:45:43.376Z,92.23
2018-12-12T19:48:11.657Z,91.97
2018-12-12T19:50:39.843Z,91.61
2018-12-12T19:53:08.027Z,92.39
2018-12-12T19:55:36.219Z,92.23
2018-12-12T19:58:04.393Z,92.75
2018-12-12T20:00:32.546Z,92.31
2018-12-12T20:03:00.725Z,91.59
2018-12-12T20:05:28.840Z,90.54
2018-12-12T20:07:57.037Z,90.14
2018-12-12T20:13:15.001Z,88.10
2018-12-12T20:15:44.348Z,87.89
2018-12-12T20:18:12.730Z,87.41
2018-12-12T20:20:40.983Z,86.80
2018-12-12T20:23:09.359Z,84.70
2018-12-12T20:25:37.621Z,85.18
2018-12-12T20:28:06.721Z,84.75
2018-12-12T20:30:35.496Z,83.94
2018-12-12T20:33:04.212Z,83.45
2018-12-12T20:35:32.341Z,83.83
2018-12-12T20:38:00.560Z,83.78
2018-12-12T20:40:28.706Z,83.48
2018-12-12T20:42:56.937Z,82.88
2018-12-12T20:45:25.094Z,82.85
2018-12-12T20:47:53.200Z,81.64
2018-12-12T20:50:21.299Z,80.46
2018-12-12T20:52:49.486Z,80.89
2018-12-12T20:55:17.692Z,81.74
2018-12-12T20:57:45.921Z,81.91
2018-12-12T21:00:14.321Z,82.18
2018-12-12T21:02:42.439Z,81.21
2018-12-12T21:05:10.650Z,81.64
2018-12-12T21:07:38.753Z,82.42
2018-12-12T21:10:07.392Z,81.92
2018-12-12T21:12:35.495Z,82.15
2018-12-12T21:15:06.593Z,81.25
2018-12-12T21:17:34.965Z,81.32
2018-12-12T21:20:04.397Z,81.36
2018-12-12T21:22:32.527Z,80.26
2018-12-12T21:25:00.643Z,79.43
2018-12-12T21:27:28.829Z,79.31
2018-12-12T21:29:57.049Z,79.16
2018-12-12T21:32:25.363Z,80.27
2018-12-12T21:34:53.610Z,79.70
2018-12-12T21:37:21.712Z,80.04
2018-12-12T21:39:49.849Z,79.51
2018-12-12T21:42:18.038Z,79.70
2018-12-12T21:44:46.455Z,79.45
2018-12-12T21:47:14.781Z,80.51
2018-12-12T21:49:42.949Z,80.64
2018-12-12T21:52:11.189Z,80.69
2018-12-12T21:54:39.383Z,81.50
2018-12-12T21:57:08.573Z,81.22
2018-12-12T21:59:36.779Z,81.19
2018-12-12T22:02:05.234Z,81.50
2018-12-12T22:04:37.305Z,81.12
2018-12-12T22:07:03.895Z,81.28
2018-12-12T22:09:32.088Z,79.99
2018-12-12T22:12:00.185Z,79.86
2018-12-12T22:14:28.615Z,79.79
2018-12-12T22:16:56.751Z,80.20
2018-12-12T22:19:24.881Z,80.10
2018-12-12T22:21:53.019Z,80.66
2018-12-12T22:24:21.162Z,80.94
2018-12-12T22:26:49.285Z,81.26
2018-12-12T22:29:17.427Z,81.74
2018-12-12T22:31:45.598Z,81.18
2018-12-12T22:34:13.728Z,80.98
2018-12-12T22:36:42.549Z,81.12
2018-12-12T22:39:10.725Z,80.63
2018-12-12T22:41:38.891Z,80.46
2018-12-12T22:44:07.043Z,80.42
2018-12-12T22:46:35.241Z,81.07
2018-12-12T22:49:03.389Z,80.74
2018-12-12T22:51:31.539Z,80.46
2018-12-12T22:53:59.853Z,80.69
2018-12-12T22:56:28.117Z,81.25
2018-12-12T22:58:57.670Z,82.04
2018-12-12T23:01:26.867Z,80.99
2018-12-12T23:03:56.059Z,80.89
2018-12-12T23:06:24.160Z,81.76
2018-12-12T23:08:52.261Z,81.55
2018-12-12T23:11:20.570Z,82.96
2018-12-12T23:13:48.890Z,82.43
2018-12-12T23:16:17.363Z,81.96
2018-12-12T23:18:45.499Z,82.50
2018-12-12T23:21:13.686Z,81.72
2018-12-12T23:23:41.838Z,81.21
2018-12-12T23:26:09.948Z,80.99
2018-12-12T23:28:38.115Z,81.22
2018-12-12T23:31:06.237Z,81.55
2018-12-12T23:33:34.390Z,81.26
2018-12-12T23:36:02.669Z,81.56
2018-12-12T23:38:30.786Z,81.88
2018-12-12T23:40:58.934Z,82.00
2018-12-12T23:43:27.069Z,82.18
2018-12-12T23:45:55.288Z,82.09
2018-12-12T23:48:23.414Z,82.58
2018-12-12T23:50:51.533Z,82.70
2018-12-12T23:53:19.642Z,81.77
2018-12-12T23:55:47.993Z,82.65
2018-12-12T23:58:16.112Z,82.81
